Time;durP1;ratioP1;P1;durP2;ratioP2;P2;SDS_P1;SDS_P2;PMS_P1;PMS_P2;Temp;Humidity;BMP_temperature;BMP_pressure;BME280_temperature;BME280_humidity;BME280_pressure;Samples;Min_cycle;Max_cycle;Signal;HPM_P1;HPM_P2
2021/11/30 00:01:16;;;;;;;1.08;1.08;;;;;;;3.29;89.34;95124.28;5135429;27;20308;-64
2021/11/30 00:03:42;;;;;;;1.25;1.10;;;;;;;3.34;89.35;95122.31;5133831;27;20046;-65
2021/11/30 00:06:09;;;;;;;2.28;1.27;;;;;;;3.32;89.54;95100.13;5135258;27;20071;-64
2021/11/30 00:08:37;;;;;;;2.38;1.63;;;;;;;3.32;89.18;95093.03;5135086;27;20125;-65
2021/11/30 00:11:08;;;;;;;1.48;1.38;;;;;;;3.35;89.53;95082.00;5135308;27;20042;-64
2021/11/30 00:13:36;;;;;;;1.38;1.27;;;;;;;3.34;90.11;95056.88;5135155;27;20493;-64
2021/11/30 00:16:02;;;;;;;1.20;1.10;;;;;;;3.36;90.01;95033.81;5134898;27;20039;-63
2021/11/30 00:18:34;;;;;;;1.60;1.50;;;;;;;3.34;89.98;95022.84;5135176;27;20066;-65
2021/11/30 00:21:03;;;;;;;1.33;1.20;;;;;;;3.34;90.22;95019.47;5134791;27;20095;-65
2021/11/30 00:23:29;;;;;;;0.98;0.98;;;;;;;3.33;90.42;95002.25;5133728;27;20047;-64
2021/11/30 00:25:55;;;;;;;0.98;0.98;;;;;;;3.34;90.20;94995.91;5134942;27;20096;-64
2021/11/30 00:28:21;;;;;;;1.90;1.00;;;;;;;3.31;90.60;94978.19;5134664;27;20133;-65
2021/11/30 00:30:47;;;;;;;1.85;1.27;;;;;;;3.34;90.88;94960.03;5133265;27;20051;-65
2021/11/30 00:33:13;;;;;;;0.90;0.90;;;;;;;3.34;90.47;94954.03;5134866;27;20046;-63
2021/11/30 00:35:39;;;;;;;1.15;1.05;;;;;;;3.33;90.58;94927.09;5134935;27;20080;-64
2021/11/30 00:38:05;;;;;;;2.70;1.42;;;;;;;3.31;90.49;94918.00;5134706;27;20059;-65
2021/11/30 00:40:33;;;;;;;1.10;1.00;;;;;;;3.31;90.83;94907.53;5116219;27;20039;-64
2021/11/30 00:43:00;;;;;;;1.30;0.90;;;;;;;3.33;90.51;94902.78;5133416;27;20046;-63
2021/11/30 00:45:35;;;;;;;1.30;1.20;;;;;;;3.37;90.89;94872.31;5133275;27;20551;-64
2021/11/30 00:48:07;;;;;;;1.58;1.10;;;;;;;3.36;90.98;94862.91;5132952;27;20515;-64
2021/11/30 00:50:34;;;;;;;1.10;1.00;;;;;;;3.35;90.80;94856.91;5134716;27;20050;-63
2021/11/30 00:53:00;;;;;;;1.10;1.00;;;;;;;3.37;90.47;94836.44;5134445;27;20043;-65
2021/11/30 00:55:25;;;;;;;0.70;0.70;;;;;;;3.38;91.03;94830.16;5133093;27;20505;-65
2021/11/30 00:57:51;;;;;;;1.15;1.05;;;;;;;3.39;91.24;94815.97;5134357;27;20132;-66
2021/11/30 01:00:19;;;;;;;1.10;1.10;;;;;;;3.42;91.84;94804.91;5134434;27;20492;-65
2021/11/30 01:02:46;;;;;;;1.10;1.08;;;;;;;3.41;91.36;94784.25;5133950;27;20039;-63
2021/11/30 01:05:12;;;;;;;0.90;0.90;;;;;;;3.40;91.21;94778.25;5134268;27;20047;-64
2021/11/30 01:07:38;;;;;;;0.70;0.70;;;;;;;3.39;91.42;94762.84;5134192;27;20039;-63
2021/11/30 01:10:08;;;;;;;0.90;0.90;;;;;;;3.45;91.74;94755.63;5134056;27;20088;-64
2021/11/30 01:12:34;;;;;;;1.05;1.05;;;;;;;3.48;91.94;94744.56;5134169;27;20080;-64
2021/11/30 01:15:01;;;;;;;0.77;0.77;;;;;;;3.50;91.76;94737.16;5132525;27;20450;-65
2021/11/30 01:17:27;;;;;;;1.17;1.08;;;;;;;3.47;91.56;94754.25;5133973;27;20038;-64
2021/11/30 01:19:53;;;;;;;1.63;0.88;;;;;;;3.52;91.57;94706.97;5134061;27;20043;-63
2021/11/30 01:22:19;;;;;;;0.90;0.90;;;;;;;3.54;91.39;94690.97;5132370;27;20081;-65
2021/11/30 01:24:45;;;;;;;3.08;1.08;;;;;;;3.49;91.53;94667.56;5132424;27;20513;-65
2021/11/30 01:27:10;;;;;;;0.95;0.95;;;;;;;3.55;92.40;94676.81;5133766;27;20035;-64
2021/11/30 01:29:36;;;;;;;1.05;0.90;;;;;;;3.56;92.31;94654.78;5133892;27;20516;-63
2021/11/30 01:32:03;;;;;;;0.85;0.85;;;;;;;3.58;92.50;94656.00;5133638;27;20051;-63
2021/11/30 01:34:29;;;;;;;0.90;0.90;;;;;;;3.65;92.42;94639.84;5133744;27;20103;-63
2021/11/30 01:36:55;;;;;;;0.90;0.90;;;;;;;3.68;91.97;94627.97;5133475;27;20544;-65
2021/11/30 01:39:22;;;;;;;0.80;0.80;;;;;;;3.70;92.30;94612.72;5133573;27;20047;-64
2021/11/30 01:41:47;;;;;;;0.90;0.90;;;;;;;3.66;91.88;94603.97;5133552;27;20046;-63
2021/11/30 01:44:30;;;;;;;0.90;0.90;;;;;;;3.67;91.68;94582.69;5133247;27;20051;-64
2021/11/30 01:49:34;;;;;;;1.40;1.30;;;;;;;3.66;91.52;94562.06;5133266;27;20047;-63
2021/11/30 01:52:11;;;;;;;1.45;1.35;;;;;;;3.69;91.61;94556.22;5133398;27;20039;-62
2021/11/30 01:54:40;;;;;;;1.10;1.00;;;;;;;3.71;92.03;94538.34;5133273;27;20397;-61
2021/11/30 01:57:07;;;;;;;1.20;1.10;;;;;;;3.75;91.97;94534.00;5133272;27;20035;-64
2021/11/30 01:59:33;;;;;;;1.00;1.00;;;;;;;3.75;91.63;94524.31;5132505;27;20411;-63
2021/11/30 02:01:59;;;;;;;1.00;1.00;;;;;;;3.76;91.72;94515.34;5131625;27;20039;-63
2021/11/30 02:04:25;;;;;;;1.10;1.00;;;;;;;3.76;92.05;94506.72;5131517;27;20046;-63
2021/11/30 02:06:51;;;;;;;2.00;1.20;;;;;;;3.80;92.08;94484.09;5132077;27;20587;-64
2021/11/30 02:09:17;;;;;;;1.30;1.20;;;;;;;3.76;92.26;94483.16;5132856;27;20074;-64
2021/11/30 02:11:43;;;;;;;1.50;1.40;;;;;;;3.79;92.67;94462.34;5132658;27;20045;-65
2021/11/30 02:14:12;;;;;;;1.40;1.27;;;;;;;3.86;93.11;94457.41;5132694;27;20043;-65
2021/11/30 02:16:38;;;;;;;2.67;1.63;;;;;;;3.92;92.67;94444.16;5131368;27;20104;-65
2021/11/30 02:19:04;;;;;;;1.58;1.38;;;;;;;3.90;92.75;94436.59;5132369;27;20531;-64
2021/11/30 02:21:38;;;;;;;1.92;1.60;;;;;;;3.90;93.03;94412.25;5131172;27;20057;-63
2021/11/30 02:24:05;;;;;;;2.30;1.55;;;;;;;4.01;92.92;94419.44;5130984;27;20130;-64
2021/11/30 02:26:32;;;;;;;2.75;1.80;;;;;;;4.04;93.03;94410.94;5131506;27;20046;-63
2021/11/30 02:28:58;;;;;;;2.17;1.98;;;;;;;4.06;92.74;94402.78;5114434;28;20047;-65
2021/11/30 02:31:30;;;;;;;2.58;1.80;;;;;;;4.12;92.45;94396.28;5130886;27;20055;-64
2021/11/30 02:33:56;;;;;;;1.88;1.65;;;;;;;4.13;92.42;94381.31;5132334;27;20092;-65
2021/11/30 02:36:37;;;;;;;2.40;1.90;;;;;;;4.14;92.15;94385.44;5132326;27;20487;-64
2021/11/30 02:39:06;;;;;;;2.70;1.83;;;;;;;4.17;92.85;94382.97;5132500;27;20553;-64
2021/11/30 02:41:33;;;;;;;3.92;1.90;;;;;;;4.18;92.74;94358.31;5130785;27;20068;-63
2021/11/30 02:43:59;;;;;;;1.88;1.65;;;;;;;4.24;93.29;94354.41;5132272;27;20102;-63
2021/11/30 02:46:39;;;;;;;1.85;1.67;;;;;;;4.23;93.04;94347.63;5131082;27;20043;-64
2021/11/30 02:49:07;;;;;;;2.50;1.90;;;;;;;4.35;93.10;94354.00;5130758;28;20501;-63
2021/11/30 02:51:34;;;;;;;4.20;2.17;;;;;;;4.41;93.69;94345.66;5132440;27;20063;-64
2021/11/30 02:54:04;;;;;;;2.50;2.17;;;;;;;4.49;93.83;94341.41;5132622;27;20500;-63
2021/11/30 02:56:31;;;;;;;4.25;2.70;;;;;;;4.52;93.88;94325.81;5132492;27;20393;-64
2021/11/30 02:58:56;;;;;;;3.83;2.38;;;;;;;4.52;93.73;94317.94;5131049;28;20424;-64
2021/11/30 03:01:23;;;;;;;2.75;2.35;;;;;;;4.58;93.69;94323.75;5113670;28;20046;-64
2021/11/30 03:03:48;;;;;;;3.42;2.30;;;;;;;4.66;93.47;94311.66;5132481;27;20082;-63
2021/11/30 03:06:14;;;;;;;4.45;2.60;;;;;;;4.78;94.40;94298.56;5130938;28;20039;-64
2021/11/30 03:08:42;;;;;;;3.75;2.70;;;;;;;4.80;93.71;94301.66;5132301;27;20073;-64
2021/11/30 03:11:08;;;;;;;4.00;2.83;;;;;;;4.85;93.26;94290.94;5134856;27;20043;-64
2021/11/30 03:13:35;;;;;;;4.55;2.88;;;;;;;4.91;92.97;94289.66;5136646;27;20408;-64
2021/11/30 03:16:03;;;;;;;3.80;2.70;;;;;;;4.93;92.43;94281.44;5136123;27;20047;-64
2021/11/30 03:18:29;;;;;;;4.40;3.10;;;;;;;4.91;92.72;94273.91;5117727;27;20065;-65
2021/11/30 03:20:55;;;;;;;3.28;2.65;;;;;;;5.06;93.13;94277.75;5135965;27;20042;-65
2021/11/30 03:23:21;;;;;;;6.22;3.40;;;;;;;5.18;94.26;94275.13;5135787;27;20039;-64
2021/11/30 03:25:47;;;;;;;6.18;4.00;;;;;;;5.29;93.65;94266.81;5134464;27;20055;-64
2021/11/30 03:28:12;;;;;;;7.57;4.57;;;;;;;5.35;93.26;94262.88;5135767;27;20038;-65
2021/11/30 03:30:42;;;;;;;6.32;4.40;;;;;;;5.44;94.01;94260.91;5134387;27;20051;-64
2021/11/30 03:35:55;;;;;;;6.53;3.83;;;;;;;5.65;92.72;94261.56;5135714;27;20054;-65
2021/11/30 03:38:20;;;;;;;8.40;4.65;;;;;;;5.75;92.77;94249.06;5135888;27;20035;-65
2021/11/30 03:40:46;;;;;;;6.65;5.38;;;;;;;5.82;92.02;94249.25;5134574;27;20142;-65
2021/11/30 03:43:12;;;;;;;8.00;4.82;;;;;;;5.87;91.13;94247.16;5134098;27;20496;-65
2021/11/30 03:45:38;;;;;;;5.72;4.43;;;;;;;5.92;91.42;94241.66;5134868;27;20054;-64
2021/11/30 03:48:04;;;;;;;8.43;5.00;;;;;;;5.94;91.08;94236.09;5134072;27;20043;-65
2021/11/30 03:50:30;;;;;;;7.60;5.05;;;;;;;6.03;91.26;94244.63;5135272;27;20047;-64
2021/11/30 03:52:56;;;;;;;10.93;6.10;;;;;;;6.03;90.07;94242.00;5135396;27;20038;-65
2021/11/30 03:55:22;;;;;;;12.05;5.82;;;;;;;6.02;90.48;94235.19;5135128;27;20039;-65
2021/11/30 03:57:48;;;;;;;11.85;6.25;;;;;;;6.06;91.14;94241.34;5135494;27;20077;-65
2021/11/30 04:00:14;;;;;;;9.93;5.68;;;;;;;6.13;91.09;94236.25;5134649;27;20142;-65
2021/11/30 04:02:40;;;;;;;10.20;5.70;;;;;;;6.22;91.14;94243.25;5135156;27;20126;-65
2021/11/30 04:05:09;;;;;;;7.35;4.95;;;;;;;6.31;91.17;94242.00;5133440;27;20544;-65
2021/11/30 04:07:34;;;;;;;6.00;4.40;;;;;;;6.37;90.94;94253.81;5135009;27;20047;-65
2021/11/30 04:10:01;;;;;;;5.78;4.10;;;;;;;6.49;90.56;94249.59;5134873;27;20096;-65
2021/11/30 04:12:27;;;;;;;3.92;2.90;;;;;;;6.50;90.34;94251.09;5134994;27;20125;-64
2021/11/30 04:14:52;;;;;;;3.53;2.97;;;;;;;6.58;90.89;94258.84;5134746;27;20127;-64
2021/11/30 04:17:18;;;;;;;4.50;2.80;;;;;;;6.65;89.87;94265.38;5134836;27;20086;-65
2021/11/30 04:19:45;;;;;;;3.50;2.47;;;;;;;6.70;89.94;94280.94;5134752;27;20054;-64
2021/11/30 04:22:12;;;;;;;2.90;2.10;;;;;;;6.68;89.15;94270.00;5133573;27;20135;-65
2021/11/30 04:24:39;;;;;;;2.25;2.00;;;;;;;6.63;89.02;94286.78;5133436;27;20047;-66
2021/11/30 04:27:04;;;;;;;1.70;1.60;;;;;;;6.61;88.75;94299.50;5134412;27;20089;-65
2021/11/30 04:29:31;;;;;;;1.60;1.50;;;;;;;6.50;87.52;94304.50;5116136;27;20074;-64
2021/11/30 04:31:57;;;;;;;1.40;1.30;;;;;;;6.50;88.21;94299.25;5133060;27;20711;-65
2021/11/30 04:34:23;;;;;;;1.80;1.40;;;;;;;6.50;87.68;94307.13;5134350;27;20043;-64
2021/11/30 04:36:48;;;;;;;1.27;1.17;;;;;;;6.53;87.76;94322.25;5134753;27;20039;-66
2021/11/30 04:39:14;;;;;;;2.35;1.30;;;;;;;6.48;89.88;94311.94;5133075;27;20145;-65
2021/11/30 04:41:42;;;;;;;2.40;1.20;;;;;;;6.47;89.87;94305.16;5134460;27;20085;-65
2021/11/30 04:44:10;;;;;;;0.90;0.90;;;;;;;6.40;89.19;94343.66;5132936;27;20039;-64
2021/11/30 04:49:39;;;;;;;1.05;0.95;;;;;;;6.13;88.20;94324.88;5133301;27;20083;-65
2021/11/30 04:52:08;;;;;;;0.90;0.90;;;;;;;6.18;89.38;94365.91;5134139;27;20035;-65
2021/11/30 04:54:33;;;;;;;0.90;0.90;;;;;;;6.08;87.62;94356.63;5134433;27;20488;-66
2021/11/30 04:56:59;;;;;;;2.25;0.90;;;;;;;5.98;87.37;94365.75;5134560;27;20089;-65
2021/11/30 04:59:25;;;;;;;0.77;0.73;;;;;;;5.92;86.25;94375.69;5134177;27;20043;-65
2021/11/30 05:01:51;;;;;;;0.70;0.70;;;;;;;5.92;87.30;94409.84;5098489;27;20542;-65
2021/11/30 05:04:17;;;;;;;1.02;0.80;;;;;;;5.90;87.34;94400.75;5133935;27;20081;-65
2021/11/30 05:06:46;;;;;;;0.75;0.75;;;;;;;5.83;87.30;94401.31;5132544;27;20043;-66
2021/11/30 05:09:11;;;;;;;1.02;0.70;;;;;;;5.79;86.05;94407.53;5133529;27;20118;-65
2021/11/30 05:11:38;;;;;;;0.70;0.70;;;;;;;5.74;86.54;94420.91;5133267;27;20217;-65
2021/11/30 05:14:05;;;;;;;0.60;0.60;;;;;;;5.69;86.82;94414.00;5132245;27;20047;-65
2021/11/30 05:16:32;;;;;;;0.60;0.60;;;;;;;5.69;86.01;94429.75;5133573;27;20039;-65
2021/11/30 05:18:58;;;;;;;0.73;0.73;;;;;;;5.54;84.79;94441.66;5133553;27;20046;-67
2021/11/30 05:21:24;;;;;;;0.60;0.60;;;;;;;5.56;86.66;94459.72;5133180;27;20429;-64
2021/11/30 05:23:50;;;;;;;0.50;0.50;;;;;;;5.47;84.81;94465.84;5133179;27;20039;-62
2021/11/30 05:26:16;;;;;;;0.70;0.70;;;;;;;5.41;85.05;94482.88;5131938;27;20042;-62
2021/11/30 05:28:42;;;;;;;0.70;0.70;;;;;;;5.36;85.60;94472.59;5133546;27;20404;-61
2021/11/30 05:31:09;;;;;;;0.70;0.70;;;;;;;5.33;85.08;94470.59;5133061;27;20527;-60
2021/11/30 05:33:36;;;;;;;0.60;0.60;;;;;;;5.31;84.88;94488.53;5134522;27;20035;-61
2021/11/30 05:36:03;;;;;;;0.60;0.60;;;;;;;5.27;85.07;94492.13;5133481;27;20480;-61
2021/11/30 05:38:30;;;;;;;0.77;0.70;;;;;;;5.23;85.32;94499.88;5133197;27;20039;-62
2021/11/30 05:40:56;;;;;;;0.60;0.60;;;;;;;5.27;86.18;94497.38;5132642;27;20150;-61
2021/11/30 05:43:22;;;;;;;0.77;0.77;;;;;;;5.24;83.50;94496.16;5131523;27;20126;-61
2021/11/30 05:45:48;;;;;;;0.80;0.80;;;;;;;5.34;83.54;94508.13;5130134;27;20050;-62
2021/11/30 05:48:14;;;;;;;0.60;0.60;;;;;;;5.36;83.49;94514.59;5129883;27;20039;-63
2021/11/30 05:50:41;;;;;;;0.60;0.60;;;;;;;5.39;84.06;94508.69;5126075;27;20043;-61
2021/11/30 05:53:07;;;;;;;0.82;0.82;;;;;;;5.39;83.57;94528.94;5127076;27;20042;-62
2021/11/30 05:55:33;;;;;;;0.80;0.80;;;;;;;5.44;83.92;94533.97;5130030;27;20111;-60
2021/11/30 05:58:00;;;;;;;1.05;0.90;;;;;;;5.43;83.34;94554.22;5130061;27;20085;-60
2021/11/30 06:00:28;;;;;;;0.90;0.80;;;;;;;5.42;83.79;94536.94;5130414;27;20100;-60
2021/11/30 06:03:04;;;;;;;1.00;0.90;;;;;;;5.50;82.63;94551.09;5130486;27;20568;-62
2021/11/30 06:05:32;;;;;;;0.82;0.80;;;;;;;5.55;82.95;94555.34;5130972;27;20197;-60
2021/11/30 06:07:58;;;;;;;1.98;1.05;;;;;;;5.47;82.56;94564.81;5128745;27;20054;-61
2021/11/30 06:10:24;;;;;;;3.17;0.77;;;;;;;5.48;83.03;94548.00;5132035;27;20130;-61
2021/11/30 06:12:50;;;;;;;1.38;0.88;;;;;;;5.55;82.63;94552.72;5128654;27;20059;-59
2021/11/30 06:15:17;;;;;;;1.58;0.80;;;;;;;5.53;83.04;94571.44;5130668;27;20418;-61
2021/11/30 06:17:43;;;;;;;1.10;0.82;;;;;;;5.51;83.80;94567.59;5131633;27;20049;-60
2021/11/30 06:20:11;;;;;;;0.98;0.90;;;;;;;5.53;82.57;94571.44;5129178;27;20073;-60
2021/11/30 06:22:38;;;;;;;0.70;0.70;;;;;;;5.54;83.44;94564.34;5130196;27;20035;-61
2021/11/30 06:25:05;;;;;;;2.25;1.00;;;;;;;5.48;83.83;94582.13;5130231;27;20034;-60
2021/11/30 06:27:31;;;;;;;1.00;0.90;;;;;;;5.52;83.45;94588.28;5128775;27;20076;-61
2021/11/30 06:29:57;;;;;;;1.40;0.98;;;;;;;5.46;82.84;94597.44;5129697;27;20118;-61
2021/11/30 06:32:23;;;;;;;0.75;0.75;;;;;;;5.43;80.95;94582.34;5129041;27;20480;-62
2021/11/30 06:34:50;;;;;;;0.55;0.55;;;;;;;5.42;79.62;94588.69;5127062;27;20044;-65
2021/11/30 06:37:15;;;;;;;0.77;0.75;;;;;;;5.44;79.39;94584.66;5129916;27;20239;-62
2021/11/30 06:39:41;;;;;;;0.70;0.70;;;;;;;5.40;80.51;94609.22;5128283;27;20532;-65
2021/11/30 06:42:07;;;;;;;0.60;0.60;;;;;;;5.33;79.50;94614.25;5129056;27;20068;-65
2021/11/30 06:44:35;;;;;;;0.70;0.70;;;;;;;5.38;79.40;94603.53;5127907;27;20047;-65
2021/11/30 06:47:05;;;;;;;0.80;0.80;;;;;;;5.37;78.99;94607.25;5127581;28;20039;-65
2021/11/30 06:49:31;;;;;;;0.90;0.90;;;;;;;5.24;79.31;94620.31;5129384;27;20104;-65
2021/11/30 06:51:58;;;;;;;0.80;0.80;;;;;;;5.24;78.53;94611.66;5130558;27;20448;-64
2021/11/30 06:54:24;;;;;;;1.05;0.80;;;;;;;5.24;79.09;94625.56;5130559;27;20084;-66
2021/11/30 06:56:50;;;;;;;1.23;0.93;;;;;;;5.25;79.49;94621.06;5127646;28;20069;-64
2021/11/30 06:59:15;;;;;;;2.35;1.10;;;;;;;5.19;78.42;94627.59;5129578;27;20540;-64
2021/11/30 07:01:43;;;;;;;2.25;1.45;;;;;;;5.11;77.81;94644.16;5127829;27;20047;-66
2021/11/30 07:04:09;;;;;;;0.90;0.90;;;;;;;5.18;77.88;94636.56;5145073;27;20066;-67
2021/11/30 07:14:08;;;;;;;1.13;1.02;;;;;;;5.04;77.23;94647.28;5149142;27;20031;-65
2021/11/30 07:16:35;;;;;;;0.80;0.80;;;;;;;5.02;77.94;94641.59;5150136;27;20408;-64
2021/11/30 07:19:01;;;;;;;0.93;0.90;;;;;;;4.97;77.57;94647.00;5149689;27;20408;-65
2021/11/30 07:21:27;;;;;;;1.00;0.73;;;;;;;4.93;78.00;94657.38;5149363;27;20039;-64
2021/11/30 07:23:54;;;;;;;4.13;0.95;;;;;;;4.91;77.08;94658.78;5150464;27;20445;-65
2021/11/30 07:26:20;;;;;;;1.02;0.75;;;;;;;4.97;77.64;94636.50;5148779;27;20234;-64
2021/11/30 07:28:46;;;;;;;0.70;0.70;;;;;;;4.95;76.42;94678.81;5145002;27;20650;-66
2021/11/30 07:31:13;;;;;;;1.00;0.82;;;;;;;4.86;77.22;94651.88;5148493;27;20603;-66
2021/11/30 07:33:42;;;;;;;1.77;0.90;;;;;;;4.81;76.87;94659.91;5148539;27;20047;-66
2021/11/30 07:36:11;;;;;;;1.10;1.00;;;;;;;4.87;77.68;94669.13;5151111;27;20534;-65
2021/11/30 07:38:39;;;;;;;1.17;0.90;;;;;;;4.83;76.89;94667.47;5151534;27;20057;-66
2021/11/30 07:41:06;;;;;;;1.45;1.02;;;;;;;4.93;77.31;94661.84;5150627;27;20448;-64
2021/11/30 07:43:33;;;;;;;1.52;1.10;;;;;;;4.93;77.18;94688.09;5150793;27;20160;-66
2021/11/30 07:45:59;;;;;;;1.10;1.10;;;;;;;4.87;77.24;94671.00;5150543;27;20050;-64
2021/11/30 07:48:27;;;;;;;1.48;1.15;;;;;;;4.81;77.10;94667.78;5147562;27;20043;-66
2021/11/30 07:50:53;;;;;;;0.90;0.90;;;;;;;4.75;76.65;94659.31;5149376;27;20452;-67
2021/11/30 07:53:19;;;;;;;0.80;0.80;;;;;;;4.57;77.69;94663.09;5147945;27;20046;-62
2021/11/30 07:55:45;;;;;;;1.35;0.90;;;;;;;4.47;76.95;94664.22;5148383;27;20050;-64
2021/11/30 07:58:11;;;;;;;0.80;0.80;;;;;;;4.55;76.25;94678.38;5152081;27;20057;-63
2021/11/30 08:00:37;;;;;;;0.95;0.85;;;;;;;4.58;75.67;94677.72;5155182;27;20187;-62
2021/11/30 08:03:03;;;;;;;0.90;0.90;;;;;;;4.43;74.89;94667.75;5152600;27;20050;-64
2021/11/30 08:05:29;;;;;;;1.00;0.80;;;;;;;4.37;74.31;94671.63;5134938;27;20043;-62
2021/11/30 08:07:55;;;;;;;1.25;1.00;;;;;;;4.41;75.27;94677.78;5154291;27;20047;-64
2021/11/30 08:10:23;;;;;;;1.10;1.00;;;;;;;4.45;75.07;94671.63;5153250;27;20047;-63
2021/11/30 08:12:49;;;;;;;1.23;1.02;;;;;;;4.38;73.63;94666.06;5153871;27;20039;-65
2021/11/30 08:15:16;;;;;;;1.27;0.90;;;;;;;4.26;73.99;94669.34;5152202;27;20043;-63
2021/11/30 08:17:42;;;;;;;6.32;1.13;;;;;;;4.31;73.99;94673.66;5151154;27;20037;-63
2021/11/30 08:20:09;;;;;;;0.95;0.90;;;;;;;4.36;73.52;94675.34;5132272;27;20054;-63
2021/11/30 08:22:36;;;;;;;1.52;0.80;;;;;;;4.38;73.09;94676.56;5152420;27;20038;-64
2021/11/30 08:25:03;;;;;;;5.30;1.05;;;;;;;4.23;74.01;94669.19;5151948;27;20414;-63
2021/11/30 08:27:29;;;;;;;1.30;1.20;;;;;;;4.15;74.13;94673.38;5152145;27;20042;-61
2021/11/30 08:29:55;;;;;;;0.85;0.85;;;;;;;4.01;73.21;94678.78;5151417;27;20051;-62
2021/11/30 08:32:22;;;;;;;0.70;0.70;;;;;;;3.99;73.47;94682.81;5150192;27;20159;-63
2021/11/30 08:34:52;;;;;;;1.48;0.90;;;;;;;3.78;74.46;94675.56;5151229;27;20088;-63
2021/11/30 08:37:19;;;;;;;1.10;1.00;;;;;;;3.87;75.00;94678.19;5151195;27;20043;-63
2021/11/30 08:39:49;;;;;;;1.10;1.00;;;;;;;3.90;75.74;94669.72;5152565;27;20049;-62
2021/11/30 08:42:17;;;;;;;1.20;1.10;;;;;;;3.97;76.10;94671.84;5152302;27;20133;-62
2021/11/30 08:44:43;;;;;;;1.13;1.02;;;;;;;3.96;75.85;94675.56;5152665;27;20055;-62
2021/11/30 08:47:11;;;;;;;2.03;1.10;;;;;;;3.88;75.23;94674.47;5153098;27;20381;-63
2021/11/30 08:49:38;;;;;;;1.02;1.00;;;;;;;3.75;74.72;94670.94;5151819;27;20051;-62
2021/11/30 08:52:06;;;;;;;1.27;1.00;;;;;;;3.61;74.49;94662.47;5151665;27;20408;-62
2021/11/30 08:54:33;;;;;;;0.85;0.85;;;;;;;3.64;75.04;94667.09;5149618;27;20334;-60
2021/11/30 08:57:00;;;;;;;1.00;0.90;;;;;;;3.68;73.43;94656.78;5152713;27;20123;-61
2021/11/30 08:59:26;;;;;;;1.75;1.15;;;;;;;3.72;74.25;94663.72;5150575;27;20496;-62
2021/11/30 09:01:53;;;;;;;2.30;1.10;;;;;;;3.55;73.40;94664.47;5131648;27;20038;-62
2021/11/30 09:04:19;;;;;;;0.95;0.95;;;;;;;3.54;74.86;94659.56;5147991;27;20050;-61
2021/11/30 09:06:45;;;;;;;1.00;1.00;;;;;;;3.58;74.76;94669.09;5149597;27;20061;-61
2021/11/30 09:09:11;;;;;;;1.35;1.10;;;;;;;3.55;73.78;94661.09;5146505;27;20034;-62
2021/11/30 09:11:38;;;;;;;1.58;0.90;;;;;;;3.47;74.76;94659.22;5150790;27;20429;-63
2021/11/30 09:14:05;;;;;;;0.95;0.95;;;;;;;3.30;74.52;94647.69;5150414;27;20038;-62
2021/11/30 09:16:31;;;;;;;1.48;1.00;;;;;;;3.28;74.46;94683.84;5149649;27;20495;-63
2021/11/30 09:18:57;;;;;;;1.40;1.20;;;;;;;3.15;75.99;94646.28;5129887;27;20039;-60
2021/11/30 09:21:24;;;;;;;2.45;1.33;;;;;;;3.30;76.26;94658.16;5148994;27;20046;-65
2021/11/30 09:23:50;;;;;;;1.40;1.10;;;;;;;3.27;75.62;94656.16;5131697;27;20046;-66
2021/11/30 09:26:16;;;;;;;1.30;0.98;;;;;;;3.16;76.17;94652.28;5150356;27;20529;-63
2021/11/30 09:28:42;;;;;;;1.83;1.08;;;;;;;3.13;76.69;94652.91;5151258;27;20130;-63
2021/11/30 09:31:09;;;;;;;2.33;1.45;;;;;;;3.12;77.07;94659.97;5149818;27;20050;-63
2021/11/30 09:33:36;;;;;;;4.22;1.30;;;;;;;3.05;76.35;94654.41;5149783;27;20053;-66
2021/11/30 09:36:02;;;;;;;2.88;1.20;;;;;;;3.09;76.71;94649.34;5149312;27;20138;-62
2021/11/30 09:38:28;;;;;;;1.10;1.10;;;;;;;2.86;76.48;94631.16;5148697;27;20512;-64
2021/11/30 09:40:58;;;;;;;1.35;1.10;;;;;;;2.65;77.65;94645.84;5147606;27;20041;-64
2021/11/30 09:43:25;;;;;;;1.17;1.08;;;;;;;2.58;77.58;94643.66;5148174;27;20133;-66
2021/11/30 09:45:52;;;;;;;1.92;1.40;;;;;;;2.68;78.19;94638.19;5151444;27;20058;-63
2021/11/30 09:48:18;;;;;;;1.25;1.15;;;;;;;2.68;77.50;94650.47;5148384;27;20376;-62
2021/11/30 09:50:45;;;;;;;1.45;1.30;;;;;;;2.58;77.55;94632.44;5149750;27;20530;-65
2021/11/30 09:53:12;;;;;;;1.77;1.17;;;;;;;2.58;76.96;94653.34;5151546;27;20046;-61
2021/11/30 09:55:39;;;;;;;4.22;1.63;;;;;;;2.57;78.33;94643.97;5152299;27;20076;-61
2021/11/30 09:58:05;;;;;;;1.30;1.13;;;;;;;2.48;77.99;94639.47;5152480;27;20551;-59
2021/11/30 10:00:35;;;;;;;1.83;1.48;;;;;;;2.44;77.87;94635.16;5151349;27;20054;-63
2021/11/30 10:03:01;;;;;;;2.63;1.30;;;;;;;2.32;78.79;94637.56;5152379;27;20042;-59
2021/11/30 10:05:29;;;;;;;1.35;1.25;;;;;;;2.30;79.41;94639.72;5151963;27;20385;-60
2021/11/30 10:07:56;;;;;;;1.40;1.30;;;;;;;2.36;79.24;94622.84;5149622;27;20034;-63
2021/11/30 10:10:32;;;;;;;1.70;1.38;;;;;;;2.39;78.96;94617.78;5149090;27;20039;-60
2021/11/30 10:13:04;;;;;;;2.53;1.30;;;;;;;2.29;78.90;94620.63;5133967;27;20118;-60
2021/11/30 10:15:32;;;;;;;2.97;1.40;;;;;;;2.20;78.23;94597.09;5149665;27;20057;-60
2021/11/30 10:18:19;;;;;;;1.70;1.20;;;;;;;2.16;78.80;94614.44;5151883;27;20043;-60
2021/11/30 10:20:46;;;;;;;3.25;1.30;;;;;;;2.21;79.62;94618.78;5150032;27;20076;-60
2021/11/30 10:23:12;;;;;;;2.72;1.17;;;;;;;2.20;79.05;94625.81;5150858;27;20050;-61
2021/11/30 10:25:40;;;;;;;1.17;1.15;;;;;;;2.13;78.31;94622.88;5152014;27;20091;-60
2021/11/30 10:28:11;;;;;;;1.67;1.10;;;;;;;2.20;77.77;94619.84;5150532;27;20035;-61
2021/11/30 10:30:40;;;;;;;1.40;1.10;;;;;;;2.11;76.66;94611.94;5149122;27;20200;-61
2021/11/30 10:33:08;;;;;;;2.45;1.02;;;;;;;2.12;75.93;94608.28;5149389;27;20389;-63
2021/11/30 10:35:34;;;;;;;0.80;0.80;;;;;;;2.03;76.54;94592.56;5148672;27;20123;-60
2021/11/30 10:38:13;;;;;;;1.13;0.90;;;;;;;1.89;76.18;94604.94;5148951;27;20076;-59
2021/11/30 10:40:40;;;;;;;0.95;0.88;;;;;;;1.85;76.61;94595.38;5149199;27;20375;-60
2021/11/30 10:43:08;;;;;;;0.90;0.80;;;;;;;1.96;76.29;94594.81;5151134;27;20038;-62
2021/11/30 10:45:37;;;;;;;0.95;0.88;;;;;;;1.92;76.97;94593.13;5150481;27;20468;-60
2021/11/30 10:48:09;;;;;;;1.10;1.00;;;;;;;1.94;77.24;94601.41;5147134;27;20046;-61
2021/11/30 10:50:57;;;;;;;1.10;1.00;;;;;;;1.95;77.65;94598.53;5149098;27;20052;-59
2021/11/30 10:53:25;;;;;;;0.80;0.80;;;;;;;1.96;77.89;94584.38;5149730;27;20094;-60
2021/11/30 10:55:53;;;;;;;1.05;0.90;;;;;;;1.97;77.26;94572.88;5133162;27;20066;-60
2021/11/30 10:58:21;;;;;;;2.20;1.00;;;;;;;1.92;76.96;94575.63;5151650;27;20050;-60
2021/11/30 11:00:48;;;;;;;1.00;1.00;;;;;;;1.86;77.74;94578.66;5148431;27;20039;-60
2021/11/30 11:03:22;;;;;;;1.15;1.08;;;;;;;1.91;78.13;94578.50;5148434;27;20038;-63
2021/11/30 11:08:48;;;;;;;1.48;1.20;;;;;;;1.69;78.01;94567.03;5148552;27;20062;-62
2021/11/30 11:11:23;;;;;;;1.80;1.23;;;;;;;1.68;77.45;94562.91;5151117;27;20446;-61
2021/11/30 11:13:49;;;;;;;2.88;1.20;;;;;;;1.72;78.27;94569.06;5149629;27;20050;-63
2021/11/30 11:16:23;;;;;;;0.90;0.90;;;;;;;1.67;77.24;94550.13;5149537;27;20042;-62
2021/11/30 11:18:51;;;;;;;0.90;0.90;;;;;;;1.69;77.00;94564.44;5150733;27;20107;-63
2021/11/30 11:21:18;;;;;;;2.75;1.08;;;;;;;1.75;77.63;94562.47;5151216;27;20492;-63
2021/11/30 11:24:04;;;;;;;1.40;1.00;;;;;;;1.78;77.35;94557.41;5149085;27;20049;-62
2021/11/30 11:26:34;;;;;;;1.20;1.08;;;;;;;1.86;77.12;94555.16;5151947;27;20030;-65
2021/11/30 11:29:03;;;;;;;1.52;1.30;;;;;;;1.74;77.68;94555.72;5150032;27;20068;-62
2021/11/30 11:31:29;;;;;;;2.87;1.17;;;;;;;1.67;77.45;94555.34;5148472;27;20081;-64
2021/11/30 11:33:57;;;;;;;3.47;1.23;;;;;;;1.69;77.23;94559.22;5145403;27;20134;-63
2021/11/30 11:36:23;;;;;;;1.95;1.70;;;;;;;1.67;78.42;94552.75;5133961;27;20039;-63
2021/11/30 11:38:49;;;;;;;2.00;1.50;;;;;;;1.71;78.29;94549.25;5131817;27;20134;-64
2021/11/30 11:41:16;;;;;;;1.30;1.17;;;;;;;1.72;78.08;94550.03;5132879;27;20038;-62
2021/11/30 11:43:42;;;;;;;1.40;1.10;;;;;;;1.54;78.67;94555.13;5133640;27;20039;-63
2021/11/30 11:46:12;;;;;;;1.13;1.00;;;;;;;1.55;76.80;94558.50;5133905;27;20042;-64
2021/11/30 11:48:39;;;;;;;0.95;0.90;;;;;;;1.58;76.84;94552.69;5115825;27;20043;-62
2021/11/30 11:51:06;;;;;;;2.08;1.10;;;;;;;1.59;75.87;94573.28;5132645;27;20047;-65
2021/11/30 11:53:35;;;;;;;1.50;0.95;;;;;;;1.61;75.80;94559.94;5132301;27;20568;-64
2021/11/30 11:56:11;;;;;;;2.05;1.10;;;;;;;1.59;76.11;94559.47;5133141;27;20051;-67
2021/11/30 11:58:39;;;;;;;0.75;0.75;;;;;;;1.60;77.06;94574.06;5134193;27;20043;-65
2021/11/30 12:01:06;;;;;;;2.00;1.00;;;;;;;1.66;77.56;94574.69;5134090;27;20027;-62